Time;durP1;ratioP1;P1;durP2;ratioP2;P2;SDS_P1;SDS_P2;PMS_P1;PMS_P2;Temp;Humidity;BMP_temperature;BMP_pressure;BME280_temperature;BME280_humidity;BME280_pressure;Samples;Min_cycle;Max_cycle;Signal;HPM_P1;HPM_P2
2022/05/27 00:02:00;;;;;;;7.00;3.58;;;;;;;20.60;46.94;101787.13;4903184;29;20032;-92
2022/05/27 00:04:26;;;;;;;9.93;3.63;;;;;;;20.46;47.04;101776.78;4902970;29;20119;-92
2022/05/27 00:06:52;;;;;;;6.30;3.63;;;;;;;20.42;47.05;101777.91;4902623;29;20524;-91
2022/05/27 00:09:17;;;;;;;5.68;3.97;;;;;;;20.40;47.23;101775.38;4902501;29;20036;-91
2022/05/27 00:11:42;;;;;;;5.13;3.53;;;;;;;20.26;47.51;101767.69;4902715;29;20042;-93
2022/05/27 00:14:08;;;;;;;6.13;3.60;;;;;;;20.18;47.88;101770.84;4902724;29;20070;-91
2022/05/27 00:16:33;;;;;;;5.88;4.00;;;;;;;20.18;48.01;101760.34;4902674;29;20032;-92
2022/05/27 00:18:59;;;;;;;9.02;3.60;;;;;;;20.26;47.57;101772.94;4902315;29;20474;-91
2022/05/27 00:21:25;;;;;;;5.72;3.78;;;;;;;20.20;47.77;101774.19;4902574;29;20042;-90
2022/05/27 00:23:51;;;;;;;4.63;3.30;;;;;;;20.13;47.87;101758.97;4902296;29;20023;-91
2022/05/27 00:26:16;;;;;;;6.68;3.63;;;;;;;20.10;47.76;101757.41;4902395;29;20032;-91
2022/05/27 00:28:42;;;;;;;5.60;3.55;;;;;;;19.99;47.96;101754.69;4918154;29;20036;-90
2022/05/27 00:31:07;;;;;;;5.57;3.45;;;;;;;19.99;48.11;101754.69;4902238;29;20038;-91
2022/05/27 00:33:34;;;;;;;5.97;3.58;;;;;;;19.91;48.42;101757.03;4902377;29;20032;-92
2022/05/27 00:35:59;;;;;;;5.82;3.47;;;;;;;19.84;48.70;101751.34;4918034;29;20027;-92
2022/05/27 00:38:25;;;;;;;5.95;3.45;;;;;;;19.84;48.69;101751.34;4901974;29;20051;-90
2022/05/27 00:40:52;;;;;;;4.68;3.60;;;;;;;19.95;48.18;101755.84;4902219;29;20551;-89
2022/05/27 00:43:18;;;;;;;5.07;3.60;;;;;;;19.85;48.29;101755.66;4902601;29;20032;-91
2022/05/27 00:45:45;;;;;;;6.95;3.80;;;;;;;19.75;48.13;101747.59;4902115;29;20040;-92
2022/05/27 00:48:15;;;;;;;6.93;4.00;;;;;;;19.91;47.99;101762.28;4918203;29;20031;-92
2022/05/27 00:50:42;;;;;;;5.85;3.67;;;;;;;19.88;48.32;101754.63;4918434;29;20032;-92
2022/05/27 00:53:08;;;;;;;6.18;3.70;;;;;;;19.75;48.25;101742.34;4917794;29;20038;-90
2022/05/27 00:55:36;;;;;;;6.15;3.80;;;;;;;19.79;48.21;101747.38;4917869;29;20032;-91
2022/05/27 00:58:10;;;;;;;6.57;3.90;;;;;;;19.66;48.28;101736.88;4902276;29;20161;-90
2022/05/27 01:00:36;;;;;;;7.05;4.22;;;;;;;19.71;47.95;101751.38;4902723;29;20042;-90
2022/05/27 01:03:01;;;;;;;5.32;3.97;;;;;;;19.75;48.31;101747.59;4902025;29;20032;-93
2022/05/27 01:05:27;;;;;;;6.18;3.40;;;;;;;19.77;48.11;101758.84;4901743;29;20039;-91
2022/05/27 01:07:53;;;;;;;5.07;3.50;;;;;;;19.69;48.71;101753.28;4901809;29;20056;-91
2022/05/27 01:10:19;;;;;;;6.07;3.80;;;;;;;19.75;48.49;101752.84;4901914;29;20086;-90
2022/05/27 01:13:01;;;;;;;7.75;4.15;;;;;;;19.74;48.53;101755.56;4901850;29;20489;-90
2022/05/27 01:15:34;;;;;;;5.93;4.22;;;;;;;19.61;49.11;101742.47;4933064;29;20028;-91
2022/05/27 01:20:18;;;;;;;6.22;4.28;;;;;;;19.72;48.94;101758.31;4902304;29;20039;-91
2022/05/27 01:21:14;;;;;;;6.47;3.55;;;;;;;19.40;48.97;101717.69;4925990;29;20621;-89
2022/05/27 01:23:42;;;;;;;5.82;4.03;;;;;;;19.53;48.74;101755.25;4901977;29;20042;-90
2022/05/27 01:26:32;;;;;;;6.13;3.78;;;;;;;19.54;49.65;101750.84;4933299;29;20042;-91
2022/05/27 01:29:16;;;;;;;5.97;3.95;;;;;;;19.53;49.25;101749.16;4933029;29;20094;-90
2022/05/27 01:31:46;;;;;;;5.47;4.00;;;;;;;19.54;49.38;101748.22;4932928;29;20118;-91
2022/05/27 01:34:41;;;;;;;6.50;4.00;;;;;;;19.53;49.18;101747.38;4933151;29;20028;-91
2022/05/27 01:37:47;;;;;;;8.95;4.10;;;;;;;19.53;49.01;101744.75;4918391;29;20024;-90
2022/05/27 01:40:31;;;;;;;6.13;3.92;;;;;;;19.50;48.64;101742.34;4904133;29;20086;-91
2022/05/27 01:43:17;;;;;;;5.25;3.70;;;;;;;19.29;48.44;101712.31;4902023;29;20032;-90
2022/05/27 01:46:01;;;;;;;4.90;3.47;;;;;;;19.29;48.10;101725.44;4901665;29;20064;-90
2022/05/27 01:48:30;;;;;;;6.13;3.80;;;;;;;19.44;49.35;101756.72;4920038;29;20028;-92
2022/05/27 01:51:04;;;;;;;5.22;3.85;;;;;;;19.40;48.91;101764.91;4921123;29;20107;-90
2022/05/27 01:53:35;;;;;;;5.43;3.60;;;;;;;19.29;48.79;101755.16;4921643;29;20034;-90
2022/05/27 01:56:09;;;;;;;7.63;3.92;;;;;;;19.37;49.23;101765.97;4937777;29;20414;-92
2022/05/27 01:58:39;;;;;;;6.43;4.18;;;;;;;19.23;49.12;101744.22;4936480;29;20501;-91
2022/05/27 02:01:07;;;;;;;6.40;3.70;;;;;;;19.24;49.63;101762.47;4920630;29;20050;-90
2022/05/27 02:03:34;;;;;;;5.88;3.70;;;;;;;19.06;49.73;101754.03;4904829;29;20413;-92
2022/05/27 02:06:12;;;;;;;6.25;3.78;;;;;;;18.89;50.29;101736.00;4904691;29;20035;-92
2022/05/27 02:08:42;;;;;;;7.75;3.88;;;;;;;18.96;50.22;101758.22;4921933;29;20111;-92
2022/05/27 02:11:11;;;;;;;6.28;3.78;;;;;;;18.88;50.37;101752.66;4920522;29;20032;-91
2022/05/27 02:13:50;;;;;;;6.10;3.83;;;;;;;18.80;50.68;101757.56;4904917;29;20536;-90
2022/05/27 02:16:22;;;;;;;6.05;4.00;;;;;;;18.81;50.63;101751.38;4920878;29;20035;-89
2022/05/27 02:19:20;;;;;;;6.95;4.20;;;;;;;18.78;50.66;101757.69;4904577;29;20063;-92
2022/05/27 02:21:53;;;;;;;5.90;3.92;;;;;;;18.81;49.95;101751.38;4928145;29;20130;-89
2022/05/27 02:24:36;;;;;;;4.93;3.97;;;;;;;18.74;49.92;101747.47;4904841;29;20478;-91
2022/05/27 02:27:13;;;;;;;5.65;3.50;;;;;;;18.72;50.29;101749.34;4907583;29;20043;-91
2022/05/27 02:29:38;;;;;;;5.50;3.78;;;;;;;18.66;50.38;101749.75;4906044;29;20059;-93
2022/05/27 02:32:09;;;;;;;6.07;3.55;;;;;;;18.59;50.47;101739.66;4904694;29;20032;-91
2022/05/27 02:37:31;;;;;;;7.70;4.57;;;;;;;18.38;50.97;101714.81;4923283;29;20122;-91
2022/05/27 02:39:57;;;;;;;7.18;4.28;;;;;;;18.49;50.71;101735.94;4920252;29;20295;-92
2022/05/27 02:42:34;;;;;;;6.50;4.13;;;;;;;18.44;51.13;101727.53;4904503;29;20126;-92
2022/05/27 02:45:18;;;;;;;7.00;3.72;;;;;;;18.47;51.21;101735.19;4920063;29;20558;-94
2022/05/27 02:48:11;;;;;;;5.70;3.50;;;;;;;18.49;51.09;101741.19;4935761;29;20052;-92
2022/05/27 02:50:49;;;;;;;8.15;3.78;;;;;;;18.46;51.50;101740.53;4937286;29;20093;-90
2022/05/27 02:53:39;;;;;;;8.00;3.70;;;;;;;18.46;51.08;101728.25;4936280;29;20485;-91
2022/05/27 02:56:12;;;;;;;6.32;4.03;;;;;;;18.32;51.49;101723.09;4935689;29;20032;-92
2022/05/27 02:58:37;;;;;;;6.80;3.50;;;;;;;18.35;51.37;101738.59;4920333;29;20035;-93
2022/05/27 03:01:03;;;;;;;5.38;3.50;;;;;;;18.23;51.59;101734.16;4903035;29;20071;-91
2022/05/27 03:03:28;;;;;;;4.82;3.90;;;;;;;18.26;52.02;101741.78;4919638;29;20059;-92
2022/05/27 03:06:21;;;;;;;6.95;3.85;;;;;;;18.34;51.88;101739.53;4904271;29;20039;-93
2022/05/27 03:09:08;;;;;;;5.97;3.60;;;;;;;18.29;52.02;101746.88;4935629;29;20055;-91
2022/05/27 03:11:42;;;;;;;7.10;3.95;;;;;;;18.11;52.23;101737.53;4935517;29;20491;-91
2022/05/27 03:14:22;;;;;;;8.48;3.92;;;;;;;18.24;52.30;101741.06;4936199;29;20031;-91
2022/05/27 03:17:01;;;;;;;6.57;4.28;;;;;;;18.21;52.11;101731.63;4919736;29;20395;-91
2022/05/27 03:19:44;;;;;;;8.77;4.20;;;;;;;18.10;53.04;101733.25;4919784;29;20032;-92
2022/05/27 03:22:19;;;;;;;8.80;4.22;;;;;;;18.21;52.62;101749.13;4935150;29;20107;-92
2022/05/27 03:25:06;;;;;;;53.33;6.38;;;;;;;18.24;52.54;101747.13;4935554;29;20032;-93
2022/05/27 03:27:55;;;;;;;6.50;4.15;;;;;;;18.23;53.00;101755.09;4936056;29;20332;-91
2022/05/27 03:30:23;;;;;;;7.40;4.45;;;;;;;18.10;53.34;101756.81;4933438;29;20039;-92
2022/05/27 03:33:01;;;;;;;9.43;4.43;;;;;;;18.05;53.58;101760.53;4919416;29;20063;-89
2022/05/27 03:35:40;;;;;;;10.32;5.65;;;;;;;18.11;53.33;101753.25;4936082;29;20035;-89
2022/05/27 03:38:13;;;;;;;6.45;4.35;;;;;;;18.15;53.62;101755.56;4932913;29;20039;-91
2022/05/27 03:40:58;;;;;;;6.85;4.30;;;;;;;18.16;53.31;101759.88;4949966;29;20023;-91
2022/05/27 03:43:24;;;;;;;7.10;3.80;;;;;;;18.22;53.57;101756.88;4949535;29;20027;-90
2022/05/27 03:45:54;;;;;;;6.60;4.28;;;;;;;18.28;53.48;101756.47;4933964;29;20623;-89
2022/05/27 03:48:20;;;;;;;7.80;4.28;;;;;;;18.27;53.56;101757.41;4950207;29;20050;-93
2022/05/27 03:50:47;;;;;;;7.22;3.90;;;;;;;18.53;53.53;101755.75;4934454;29;20497;-89
2022/05/27 03:53:12;;;;;;;6.78;4.28;;;;;;;18.91;51.95;101760.31;4918267;29;20027;-88
2022/05/27 03:55:44;;;;;;;7.82;4.05;;;;;;;18.78;52.23;101760.28;4934687;29;20035;-93
2022/05/27 03:58:13;;;;;;;7.40;4.55;;;;;;;18.73;52.11;101762.34;4934287;29;20031;-93
2022/05/27 04:00:39;;;;;;;9.60;4.35;;;;;;;19.20;52.41;101766.25;4933735;29;20035;-90
2022/05/27 04:03:05;;;;;;;9.43;4.15;;;;;;;19.64;52.02;101759.78;4934251;29;20060;-92
2022/05/27 04:05:30;;;;;;;11.43;4.38;;;;;;;20.31;50.39;101770.78;4933789;29;20047;-92
2022/05/27 04:07:56;;;;;;;6.63;4.03;;;;;;;20.42;48.88;101762.97;4932796;29;20056;-89
2022/05/27 04:10:22;;;;;;;8.57;4.30;;;;;;;20.81;48.18;101759.25;4917367;29;20198;-90
2022/05/27 04:12:47;;;;;;;11.30;4.80;;;;;;;20.62;47.07;101743.97;4917087;29;20546;-87
2022/05/27 04:15:13;;;;;;;9.38;4.82;;;;;;;20.25;48.54;101765.97;4915044;29;20027;-90
2022/05/27 04:17:40;;;;;;;13.20;5.00;;;;;;;20.00;48.97;101762.47;4932854;29;20038;-90
2022/05/27 04:20:11;;;;;;;8.98;4.53;;;;;;;19.94;49.31;101772.56;4934447;29;20028;-90
2022/05/27 04:22:37;;;;;;;8.45;4.15;;;;;;;19.82;49.52;101773.41;4933215;29;20545;-88
2022/05/27 04:25:03;;;;;;;9.15;4.65;;;;;;;19.73;49.51;101765.22;4948745;29;20036;-87
2022/05/27 04:27:29;;;;;;;8.90;4.38;;;;;;;19.69;49.54;101773.44;4927969;29;20054;-93
2022/05/27 04:29:55;;;;;;;8.18;4.28;;;;;;;19.46;50.36;101772.34;4949403;29;20505;-90
2022/05/27 04:32:25;;;;;;;7.30;4.53;;;;;;;19.47;50.35;101768.81;4916025;29;20486;-93
2022/05/27 04:34:51;;;;;;;7.97;4.45;;;;;;;19.34;50.88;101757.44;4935535;29;20118;-91
2022/05/27 04:37:16;;;;;;;8.23;4.32;;;;;;;19.36;50.89;101761.63;4932980;29;20031;-91
2022/05/27 04:39:42;;;;;;;7.47;4.90;;;;;;;19.21;51.09;101749.56;4916711;29;20888;-87
2022/05/27 04:42:07;;;;;;;9.35;4.70;;;;;;;19.19;51.03;101736.56;4916627;29;20028;-92
2022/05/27 04:44:33;;;;;;;9.65;5.90;;;;;;;19.31;51.22;101763.75;4916451;29;20420;-90
2022/05/27 04:46:59;;;;;;;9.80;5.40;;;;;;;19.41;51.24;101763.97;4917934;29;20038;-88
2022/05/27 04:52:10;;;;;;;9.95;4.70;;;;;;;19.37;51.59;101762.47;4919938;29;20059;-88
2022/05/27 04:54:35;;;;;;;7.18;4.60;;;;;;;19.31;51.57;101741.91;4915809;29;20043;-88
2022/05/27 04:57:01;;;;;;;11.02;4.70;;;;;;;19.55;51.06;101766.47;4932769;29;20039;-89
2022/05/27 04:59:26;;;;;;;6.28;4.60;;;;;;;19.69;50.72;101769.03;4896341;29;20032;-89
2022/05/27 05:01:52;;;;;;;8.20;4.68;;;;;;;20.26;49.21;101786.91;4927593;29;20032;-89
2022/05/27 05:04:17;;;;;;;7.85;4.40;;;;;;;20.15;49.08;101776.28;4908432;29;20081;-88
2022/05/27 05:06:43;;;;;;;9.95;6.25;;;;;;;20.01;49.92;101774.66;4892297;29;20032;-91
2022/05/27 05:09:09;;;;;;;13.50;5.13;;;;;;;20.13;50.30;101772.94;4910486;29;20044;-87
2022/05/27 05:11:34;;;;;;;7.78;4.45;;;;;;;20.16;50.81;101762.22;4915365;29;20044;-88
2022/05/27 05:14:00;;;;;;;8.35;4.85;;;;;;;20.52;48.98;101763.19;4896323;29;20450;-90
2022/05/27 05:16:26;;;;;;;13.60;5.40;;;;;;;20.94;48.52;101784.63;4932050;29;20040;-85
2022/05/27 05:18:51;;;;;;;9.52;4.70;;;;;;;21.00;48.67;101768.41;4924823;29;20110;-88
2022/05/27 05:21:17;;;;;;;9.57;4.70;;;;;;;21.48;48.07;101775.25;4909299;29;20039;-90
2022/05/27 05:23:43;;;;;;;17.02;6.53;;;;;;;21.31;48.50;101764.31;4908261;29;20032;-91
2022/05/27 05:26:09;;;;;;;11.82;5.97;;;;;;;21.17;48.95;101773.25;4908944;29;20095;-90
2022/05/27 05:28:34;;;;;;;10.63;5.10;;;;;;;21.09;48.87;101775.59;4912130;29;20528;-90
2022/05/27 05:31:00;;;;;;;10.25;5.13;;;;;;;21.05;49.15;101740.81;4926775;29;20040;-87
2022/05/27 05:33:25;;;;;;;9.15;5.40;;;;;;;21.11;48.05;101763.16;4900373;29;20032;-89
2022/05/27 05:35:51;;;;;;;12.80;5.55;;;;;;;21.03;47.40;101750.59;4918145;29;20048;-86
2022/05/27 05:38:17;;;;;;;43.70;27.50;;;;;;;21.14;47.80;101776.13;4928309;29;21571;-87
2022/05/27 05:40:43;;;;;;;12.23;8.38;;;;;;;20.92;48.17;101754.03;4928161;29;20035;-84
2022/05/27 05:43:09;;;;;;;16.08;10.82;;;;;;;21.07;48.60;101774.91;4912069;29;20032;-86
2022/05/27 05:45:34;;;;;;;13.35;6.88;;;;;;;21.46;49.20;101777.16;4904825;29;20112;-87
2022/05/27 05:48:00;;;;;;;14.93;6.38;;;;;;;22.08;48.10;101777.69;4904556;29;20036;-87
2022/05/27 05:50:27;;;;;;;14.25;6.68;;;;;;;22.08;47.62;101772.41;4927982;29;20043;-92
2022/05/27 05:52:53;;;;;;;11.85;6.32;;;;;;;21.90;45.88;101743.88;4895647;29;20473;-84
2022/05/27 05:55:19;;;;;;;17.52;8.88;;;;;;;22.12;45.59;101781.72;4909989;29;20115;-92
2022/05/27 05:57:45;;;;;;;8.48;4.88;;;;;;;21.89;46.13;101773.81;4906480;29;20106;-90
2022/05/27 06:00:12;;;;;;;15.20;6.07;;;;;;;22.09;47.55;101771.44;4910371;29;20059;-91
2022/05/27 06:02:38;;;;;;;15.48;5.75;;;;;;;22.31;46.13;101771.41;4880702;29;20102;-90
2022/05/27 06:05:04;;;;;;;7.45;4.38;;;;;;;22.41;46.08;101777.59;4895539;29;20502;-90
2022/05/27 06:07:32;;;;;;;7.10;5.20;;;;;;;22.35;45.16;101783.41;4925730;29;20056;-88
2022/05/27 06:09:58;;;;;;;11.18;6.45;;;;;;;22.21;46.07;101775.72;4909223;29;20035;-88
2022/05/27 06:12:24;;;;;;;8.35;4.93;;;;;;;22.40;46.45;101739.03;4907893;29;20036;-87
2022/05/27 06:14:53;;;;;;;10.18;5.90;;;;;;;22.73;45.47;101768.91;4925033;29;20032;-93
2022/05/27 06:17:20;;;;;;;9.63;5.72;;;;;;;22.81;43.96;101775.22;4908026;29;20035;-86
2022/05/27 06:19:45;;;;;;;12.68;5.70;;;;;;;22.86;43.90;101765.13;4911763;29;20055;-90
2022/05/27 06:22:11;;;;;;;9.70;5.40;;;;;;;22.94;44.53;101782.16;4911807;29;20147;-92
2022/05/27 06:24:36;;;;;;;9.02;5.22;;;;;;;22.98;44.41;101767.72;4893907;29;20107;-86
2022/05/27 06:27:05;;;;;;;8.90;6.35;;;;;;;23.32;44.72;101771.84;4917313;29;20043;-91
2022/05/27 06:34:59;;;;;;;9.25;4.93;;;;;;;23.22;42.36;101756.91;4924704;29;20054;-90
2022/05/27 06:37:25;;;;;;;9.68;5.25;;;;;;;23.36;44.27;101744.22;4920780;29;20509;-89
2022/05/27 06:39:51;;;;;;;8.98;4.90;;;;;;;23.61;44.01;101761.47;4906883;29;20035;-92
2022/05/27 06:42:16;;;;;;;10.82;6.68;;;;;;;23.71;43.08;101746.50;4905584;29;20048;-92
2022/05/27 06:44:42;;;;;;;15.13;11.63;;;;;;;23.68;43.98;101757.31;4894824;29;20039;-91
2022/05/27 06:47:09;;;;;;;26.35;17.55;;;;;;;23.91;43.93;101744.75;4914379;29;20036;-90
2022/05/27 06:49:35;;;;;;;8.10;5.35;;;;;;;23.96;41.03;101755.75;4915198;29;20115;-93
2022/05/27 06:52:01;;;;;;;11.90;8.23;;;;;;;23.94;43.26;101762.16;4930160;29;20389;-91
2022/05/27 06:54:27;;;;;;;11.13;6.28;;;;;;;24.00;42.00;101762.47;4928396;29;20457;-90
2022/05/27 06:56:52;;;;;;;8.05;4.88;;;;;;;24.22;41.50;101764.03;4894874;29;20044;-92
2022/05/27 06:59:19;;;;;;;7.53;5.25;;;;;;;24.20;42.34;101758.06;4896449;29;20027;-86
2022/05/27 07:01:45;;;;;;;10.07;5.30;;;;;;;24.09;41.80;101755.53;4907855;29;20126;-91
2022/05/27 07:04:10;;;;;;;7.35;4.82;;;;;;;24.04;42.22;101747.16;4927340;29;20498;-83
2022/05/27 07:06:38;;;;;;;7.22;4.43;;;;;;;24.16;41.59;101756.63;4930307;29;20031;-87
2022/05/27 07:09:07;;;;;;;9.57;4.82;;;;;;;24.26;41.62;101757.50;4903811;29;20039;-89
2022/05/27 07:11:33;;;;;;;9.35;4.90;;;;;;;24.30;41.18;101753.63;4911940;29;20071;-89
2022/05/27 07:13:59;;;;;;;14.70;9.57;;;;;;;24.54;41.31;101747.13;4928178;29;20115;-89
2022/05/27 07:16:26;;;;;;;15.70;11.15;;;;;;;24.73;38.42;101746.28;4910453;29;20062;-93
2022/05/27 07:18:52;;;;;;;7.03;4.00;;;;;;;24.65;37.95;101730.25;4901437;29;20035;-93
2022/05/27 07:21:18;;;;;;;6.50;3.60;;;;;;;24.71;36.13;101727.91;4910000;29;20040;-90
2022/05/27 07:23:44;;;;;;;6.18;4.20;;;;;;;24.77;39.37;101723.84;4898240;29;20042;-90
2022/05/27 07:26:10;;;;;;;5.90;4.43;;;;;;;24.98;39.73;101734.28;4928364;29;20070;-88
2022/05/27 07:28:35;;;;;;;8.38;4.38;;;;;;;25.02;37.18;101725.94;4909399;29;20066;-88
2022/05/27 07:31:01;;;;;;;7.05;3.83;;;;;;;24.82;37.01;101730.41;4921665;29;21452;-86
2022/05/27 07:33:27;;;;;;;10.07;3.90;;;;;;;24.72;37.54;101713.69;4918007;29;20051;-89
2022/05/27 07:35:53;;;;;;;47.58;32.15;;;;;;;24.89;36.24;101713.00;4924902;29;20036;-92
2022/05/27 07:38:18;;;;;;;12.40;8.93;;;;;;;25.21;36.81;101714.47;4918941;29;20044;-90
2022/05/27 07:40:44;;;;;;;13.75;8.20;;;;;;;25.31;34.77;101723.22;4910924;29;20091;-91
2022/05/27 07:43:09;;;;;;;5.03;3.10;;;;;;;25.36;31.87;101720.97;4928166;29;20036;-92
2022/05/27 07:45:36;;;;;;;25.45;20.67;;;;;;;25.45;36.76;101709.50;4927694;29;20031;-91
2022/05/27 07:48:02;;;;;;;6.18;3.20;;;;;;;25.75;31.43;101720.81;4933270;29;20265;-90
2022/05/27 07:50:27;;;;;;;8.43;3.22;;;;;;;25.79;32.20;101716.09;4922467;29;20482;-92
2022/05/27 07:52:53;;;;;;;6.22;3.38;;;;;;;25.77;32.74;101716.25;4912340;29;20537;-87
2022/05/27 07:55:18;;;;;;;3.95;3.30;;;;;;;25.58;33.00;101714.47;4916787;29;20028;-89
2022/05/27 07:57:44;;;;;;;7.28;3.17;;;;;;;25.68;33.30;101714.44;4911181;29;20482;-90
2022/05/27 08:00:16;;;;;;;7.97;4.57;;;;;;;25.82;34.60;101721.91;4909038;29;20027;-89
2022/05/27 08:02:41;;;;;;;6.32;4.50;;;;;;;25.90;34.63;101716.72;4909011;29;20050;-86
2022/05/27 08:05:11;;;;;;;204.85;165.32;;;;;;;25.80;35.47;101689.44;4895686;29;20039;-87
2022/05/27 08:07:37;;;;;;;10.13;4.93;;;;;;;26.04;33.57;101720.66;4907001;29;20058;-92
2022/05/27 08:10:02;;;;;;;12.77;8.57;;;;;;;26.02;32.12;101717.34;4909624;29;20031;-92
2022/05/27 08:12:28;;;;;;;31.60;25.08;;;;;;;26.26;34.58;101719.41;4914531;29;20066;-87
2022/05/27 08:14:53;;;;;;;7.40;4.80;;;;;;;26.17;31.78;101670.75;4927196;29;20024;-89
2022/05/27 08:17:19;;;;;;;6.28;4.10;;;;;;;26.39;32.14;101719.06;4908202;29;20032;-86
2022/05/27 08:19:44;;;;;;;6.07;4.13;;;;;;;26.35;32.42;101710.56;4927928;29;20036;-92
2022/05/27 08:22:10;;;;;;;6.00;4.22;;;;;;;26.40;31.81;101700.34;4910761;29;20051;-89
2022/05/27 08:24:35;;;;;;;5.95;3.60;;;;;;;26.67;31.48;101706.53;4928811;29;20445;-93
2022/05/27 08:27:01;;;;;;;5.00;3.33;;;;;;;26.25;31.14;101680.59;4913133;29;20042;-92
2022/05/27 08:29:28;;;;;;;5.35;4.40;;;;;;;26.47;32.53;101696.09;4894906;29;21805;-89
2022/05/27 08:31:54;;;;;;;7.00;4.10;;;;;;;26.68;31.79;101700.25;4916980;29;20055;-88
2022/05/27 08:39:48;;;;;;;7.00;4.10;;;;;;;26.97;31.10;101682.19;4926390;29;20098;-86
2022/05/27 08:42:39;;;;;;;6.40;3.90;;;;;;;27.10;32.98;101687.94;4909010;29;20031;-88
2022/05/27 08:45:29;;;;;;;6.90;3.40;;;;;;;27.21;30.38;101699.28;4903692;29;20046;-87
2022/05/27 08:48:01;;;;;;;7.43;3.80;;;;;;;27.24;32.22;101659.97;4920001;29;20052;-90
2022/05/27 08:50:27;;;;;;;9.65;5.57;;;;;;;27.44;31.21;101657.91;4912864;29;20066;-91
2022/05/27 08:53:20;;;;;;;6.18;3.83;;;;;;;27.89;29.74;101685.97;4927018;29;20409;-86
2022/05/27 09:01:39;;;;;;;6.40;3.50;;;;;;;28.20;27.67;101681.69;4924138;29;20418;-86
2022/05/27 09:04:24;;;;;;;4.38;3.13;;;;;;;28.35;27.29;101689.06;4910005;29;20066;-91
2022/05/27 09:07:02;;;;;;;3.60;2.90;;;;;;;28.30;27.20;101681.56;4925159;29;21687;-90
2022/05/27 09:09:28;;;;;;;3.83;2.90;;;;;;;28.29;27.71;101675.44;4911174;29;20031;-92
2022/05/27 09:12:26;;;;;;;5.03;3.25;;;;;;;28.06;26.08;101647.78;4895592;29;21050;-89
2022/05/27 09:15:21;;;;;;;7.43;2.97;;;;;;;28.25;25.84;101676.72;4925456;29;20024;-86
2022/05/27 09:18:01;;;;;;;4.47;2.97;;;;;;;28.38;26.87;101670.94;4908756;29;20078;-93
2022/05/27 09:21:13;;;;;;;5.53;3.33;;;;;;;28.54;26.80;101672.78;4926246;29;20032;-93
2022/05/27 09:24:07;;;;;;;4.28;3.03;;;;;;;28.78;26.57;101664.75;4895929;29;20499;-89
2022/05/27 09:26:50;;;;;;;6.88;2.78;;;;;;;28.83;26.56;101657.09;4927818;29;20043;-87
2022/05/27 09:29:58;;;;;;;4.32;2.90;;;;;;;28.86;25.14;101656.75;4926246;29;20036;-90
2022/05/27 09:32:32;;;;;;;5.38;2.65;;;;;;;28.77;25.94;101662.25;4917617;29;20103;-85
2022/05/27 09:35:02;;;;;;;3.25;2.63;;;;;;;28.78;24.19;101648.78;4919604;29;20027;-90
2022/05/27 09:37:32;;;;;;;4.50;2.60;;;;;;;28.76;24.88;101634.81;4914427;29;20142;-89
2022/05/27 09:40:06;;;;;;;8.00;3.30;;;;;;;28.99;25.42;101644.75;4927739;29;20038;-93
2022/05/27 09:42:35;;;;;;;5.35;3.38;;;;;;;29.19;25.10;101630.03;4913802;29;20029;-90
2022/05/27 09:45:01;;;;;;;4.47;2.53;;;;;;;29.43;24.20;101632.59;4917429;29;20028;-92
2022/05/27 09:47:34;;;;;;;5.63;2.75;;;;;;;29.56;25.17;101633.91;4898242;29;20028;-94
2022/05/27 09:50:08;;;;;;;4.18;2.67;;;;;;;29.67;24.43;101625.50;4893092;29;20478;-88
2022/05/27 09:52:36;;;;;;;3.92;2.17;;;;;;;29.70;22.82;101631.34;4915520;29;20045;-89
2022/05/27 09:55:14;;;;;;;5.90;2.80;;;;;;;29.73;23.22;101618.66;4910258;29;20032;-85
2022/05/27 09:57:39;;;;;;;2.70;2.30;;;;;;;29.77;24.12;101612.78;4907796;29;20036;-90
2022/05/27 10:00:09;;;;;;;3.75;2.20;;;;;;;30.07;23.13;101619.09;4902036;29;20051;-85
2022/05/27 10:02:36;;;;;;;4.63;2.42;;;;;;;30.19;22.29;101622.19;4902117;29;20042;-87
2022/05/27 10:05:05;;;;;;;5.25;3.80;;;;;;;30.33;23.13;101612.53;4908647;29;20039;-85
2022/05/27 10:07:46;;;;;;;6.35;4.50;;;;;;;30.30;21.69;101607.56;4930293;29;20052;-91
2022/05/27 10:10:26;;;;;;;4.80;2.13;;;;;;;30.23;21.41;101605.63;4916042;29;20039;-83
2022/05/27 10:12:51;;;;;;;6.70;2.30;;;;;;;30.43;21.16;101597.91;4915430;29;20036;-84
2022/05/27 10:15:33;;;;;;;3.20;2.10;;;;;;;30.42;20.63;101611.47;4908056;29;20067;-93
2022/05/27 10:18:22;;;;;;;3.45;1.92;;;;;;;30.50;21.31;101601.53;4932631;29;20039;-91
2022/05/27 10:21:10;;;;;;;4.10;2.80;;;;;;;30.49;23.54;101602.53;4902381;29;20043;-93
2022/05/27 10:23:38;;;;;;;5.80;2.42;;;;;;;30.54;23.04;101577.94;4930713;29;20047;-90
2022/05/27 10:26:25;;;;;;;7.72;4.53;;;;;;;30.69;24.12;101592.19;4919607;29;20194;-93
2022/05/27 10:28:58;;;;;;;4.32;2.60;;;;;;;30.82;22.78;101586.19;4933449;29;20055;-86
2022/05/27 10:31:24;;;;;;;4.38;2.20;;;;;;;31.03;21.31;101578.25;4935589;29;20048;-92
2022/05/27 10:33:50;;;;;;;2.72;2.30;;;;;;;31.04;20.98;101582.56;4948574;29;20059;-92
2022/05/27 10:36:45;;;;;;;4.25;2.42;;;;;;;31.09;21.71;101577.50;4996426;23;20066;-86
2022/05/27 10:39:23;;;;;;;4.00;2.33;;;;;;;31.34;21.00;101570.00;4932549;29;20138;-92
2022/05/27 10:42:15;;;;;;;5.05;2.30;;;;;;;31.54;20.03;101567.56;4926628;29;20087;-90
2022/05/27 10:44:43;;;;;;;4.97;2.20;;;;;;;31.80;20.56;101568.88;4908034;29;20505;-92
2022/05/27 10:47:27;;;;;;;2.95;2.13;;;;;;;31.86;19.91;101562.75;4936025;29;20087;-87
2022/05/27 10:50:18;;;;;;;3.72;2.22;;;;;;;31.51;20.62;101521.66;4934892;29;20045;-84
2022/05/27 10:53:11;;;;;;;5.63;2.45;;;;;;;31.90;20.75;101558.66;4934341;29;20028;-86
2022/05/27 10:55:59;;;;;;;4.28;2.20;;;;;;;31.86;20.37;101544.03;4932597;29;20032;-88
2022/05/27 11:04:45;;;;;;;4.90;3.10;;;;;;;31.69;20.79;101538.91;4909826;29;20581;-87
2022/05/27 11:07:47;;;;;;;4.10;2.13;;;;;;;31.86;20.31;101526.13;4900548;29;20063;-86
2022/05/27 11:10:31;;;;;;;6.97;2.53;;;;;;;31.91;20.10;101523.69;4933315;29;20024;-87
2022/05/27 11:15:58;;;;;;;7.18;3.72;;;;;;;31.86;20.55;101519.94;4934492;29;20070;-85
2022/05/27 11:18:45;;;;;;;6.28;2.70;;;;;;;31.75;21.04;101505.22;4928695;29;20032;-90
2022/05/27 11:21:22;;;;;;;3.28;2.50;;;;;;;31.81;20.42;101507.13;4925464;29;20032;-86
2022/05/27 11:23:59;;;;;;;29.65;20.33;;;;;;;31.76;21.02;101506.06;4935931;29;20067;-91
2022/05/27 11:26:34;;;;;;;4.75;2.60;;;;;;;31.77;20.78;101503.22;4937600;29;20031;-87
2022/05/27 11:29:27;;;;;;;4.43;2.50;;;;;;;31.87;20.76;101500.19;4932686;29;20027;-87
2022/05/27 11:32:06;;;;;;;2.97;2.10;;;;;;;31.94;20.74;101485.00;4933152;29;20062;-86
2022/05/27 11:34:39;;;;;;;3.80;2.38;;;;;;;31.91;20.08;101486.22;4930623;29;20067;-88
2022/05/27 11:37:21;;;;;;;4.32;2.10;;;;;;;31.94;20.77;101474.28;4913627;29;20063;-83
2022/05/27 11:40:11;;;;;;;3.40;2.00;;;;;;;31.85;20.33;101480.81;4931840;29;20027;-90
2022/05/27 11:43:01;;;;;;;6.35;2.58;;;;;;;31.86;20.67;101467.28;4919533;29;20063;-87
2022/05/27 11:45:28;;;;;;;5.82;2.95;;;;;;;32.02;20.71;101455.41;4931815;29;20043;-95
2022/05/27 11:48:06;;;;;;;3.80;2.30;;;;;;;32.06;19.72;101427.25;4909395;29;20032;-88
2022/05/27 11:50:32;;;;;;;5.35;2.40;;;;;;;32.15;20.42;101428.75;4934847;29;20020;-90
2022/05/27 11:53:16;;;;;;;4.25;2.40;;;;;;;32.43;19.83;101446.63;4932017;29;20034;-86
2022/05/27 11:55:45;;;;;;;2.50;2.13;;;;;;;32.18;19.96;101439.06;4934649;29;20401;-94
2022/05/27 11:58:21;;;;;;;3.38;2.40;;;;;;;32.17;20.10;101431.22;4935888;29;20032;-93
2022/05/27 12:00:55;;;;;;;5.13;2.13;;;;;;;32.23;19.93;101417.84;4934835;29;20128;-90
2022/05/27 12:03:39;;;;;;;4.80;2.28;;;;;;;32.41;19.67;101416.53;4933752;29;20494;-92
2022/05/27 12:06:11;;;;;;;3.38;2.15;;;;;;;32.41;20.06;101406.66;4935950;29;20031;-93
2022/05/27 12:08:46;;;;;;;4.30;2.15;;;;;;;32.34;19.73;101404.97;4925565;29;20485;-89
2022/05/27 12:11:37;;;;;;;3.58;2.80;;;;;;;32.24;19.85;101387.38;4918667;29;20071;-93
2022/05/27 12:14:07;;;;;;;5.55;2.40;;;;;;;32.16;20.48;101387.56;4934529;29;20035;-93
2022/05/27 12:16:42;;;;;;;4.93;2.25;;;;;;;32.24;19.90;101395.41;4903279;29;20042;-92
2022/05/27 12:19:18;;;;;;;2.80;2.28;;;;;;;31.93;20.11;101382.50;4888078;29;20035;-87